sensor_id;sensor_type;location;lat;lon;timestamp;pressure;altitude;pressure_sealevel;temperature;humidity
77881;BME280;67077;50.298;18.996;2023-06-14T00:01:13;97916.21;;;9.11;84.06
77881;BME280;67077;50.298;18.996;2023-06-14T00:03:44;97918.27;;;9.13;83.87
77881;BME280;67077;50.298;18.996;2023-06-14T00:06:11;97914.48;;;9.16;83.77
77881;BME280;67077;50.298;18.996;2023-06-14T00:08:38;97912.60;;;9.18;83.65
77881;BME280;67077;50.298;18.996;2023-06-14T00:11:04;97909.08;;;9.18;83.59
77881;BME280;67077;50.298;18.996;2023-06-14T00:13:31;97910.09;;;9.15;83.65
77881;BME280;67077;50.298;18.996;2023-06-14T00:15:58;97910.48;;;9.12;83.67
77881;BME280;67077;50.298;18.996;2023-06-14T00:18:24;97910.80;;;9.11;83.78
77881;BME280;67077;50.298;18.996;2023-06-14T00:20:55;97909.61;;;9.12;83.81
77881;BME280;67077;50.298;18.996;2023-06-14T00:23:22;97910.10;;;9.14;83.92
77881;BME280;67077;50.298;18.996;2023-06-14T00:25:49;97909.44;;;9.13;84.07
77881;BME280;67077;50.298;18.996;2023-06-14T00:28:15;97905.08;;;9.12;83.85
77881;BME280;67077;50.298;18.996;2023-06-14T00:30:42;97902.44;;;9.11;83.69
77881;BME280;67077;50.298;18.996;2023-06-14T00:33:11;97898.82;;;9.12;83.69
77881;BME280;67077;50.298;18.996;2023-06-14T00:35:38;97902.92;;;9.15;83.54
77881;BME280;67077;50.298;18.996;2023-06-14T00:38:04;97900.98;;;9.18;83.50
77881;BME280;67077;50.298;18.996;2023-06-14T00:40:31;97899.89;;;9.23;83.41
77881;BME280;67077;50.298;18.996;2023-06-14T00:42:58;97901.44;;;9.28;83.20
77881;BME280;67077;50.298;18.996;2023-06-14T00:45:25;97897.09;;;9.32;83.05
77881;BME280;67077;50.298;18.996;2023-06-14T00:47:52;97892.33;;;9.35;82.87
77881;BME280;67077;50.298;18.996;2023-06-14T00:50:21;97891.07;;;9.38;82.54
77881;BME280;67077;50.298;18.996;2023-06-14T00:52:50;97891.73;;;9.40;82.67
77881;BME280;67077;50.298;18.996;2023-06-14T00:55:17;97891.23;;;9.39;82.68
77881;BME280;67077;50.298;18.996;2023-06-14T00:57:45;97893.44;;;9.38;82.82
77881;BME280;67077;50.298;18.996;2023-06-14T01:00:12;97892.66;;;9.33;82.91
77881;BME280;67077;50.298;18.996;2023-06-14T01:02:39;97892.65;;;9.28;82.91
77881;BME280;67077;50.298;18.996;2023-06-14T01:05:08;97891.13;;;9.24;83.01
77881;BME280;67077;50.298;18.996;2023-06-14T01:13:40;97890.16;;;9.17;83.05
77881;BME280;67077;50.298;18.996;2023-06-14T01:16:10;97888.80;;;9.11;83.14
77881;BME280;67077;50.298;18.996;2023-06-14T01:18:37;97886.34;;;9.05;83.27
77881;BME280;67077;50.298;18.996;2023-06-14T01:21:04;97885.34;;;9.02;83.48
77881;BME280;67077;50.298;18.996;2023-06-14T01:23:32;97884.13;;;9.03;83.63
77881;BME280;67077;50.298;18.996;2023-06-14T01:26:01;97884.89;;;9.04;83.45
77881;BME280;67077;50.298;18.996;2023-06-14T01:28:29;97879.48;;;9.06;83.36
77881;BME280;67077;50.298;18.996;2023-06-14T01:31:01;97877.08;;;9.07;83.24
77881;BME280;67077;50.298;18.996;2023-06-14T01:33:31;97877.67;;;9.04;83.06
77881;BME280;67077;50.298;18.996;2023-06-14T01:36:00;97880.34;;;8.99;82.64
77881;BME280;67077;50.298;18.996;2023-06-14T01:38:30;97880.95;;;8.93;82.38
77881;BME280;67077;50.298;18.996;2023-06-14T01:40:58;97881.94;;;8.94;82.62
77881;BME280;67077;50.298;18.996;2023-06-14T01:43:27;97884.88;;;8.96;82.66
77881;BME280;67077;50.298;18.996;2023-06-14T01:45:56;97884.73;;;8.98;82.58
77881;BME280;67077;50.298;18.996;2023-06-14T01:48:23;97886.27;;;8.99;82.67
77881;BME280;67077;50.298;18.996;2023-06-14T01:50:52;97887.40;;;8.97;82.65
77881;BME280;67077;50.298;18.996;2023-06-14T01:53:19;97886.90;;;8.96;82.50
77881;BME280;67077;50.298;18.996;2023-06-14T01:55:47;97887.90;;;8.96;82.50
77881;BME280;67077;50.298;18.996;2023-06-14T01:58:15;97884.45;;;8.99;82.35
77881;BME280;67077;50.298;18.996;2023-06-14T02:00:45;97882.06;;;9.04;82.26
77881;BME280;67077;50.298;18.996;2023-06-14T02:03:11;97876.59;;;9.06;82.12
77881;BME280;67077;50.298;18.996;2023-06-14T02:05:39;97880.73;;;9.08;82.28
77881;BME280;67077;50.298;18.996;2023-06-14T02:08:06;97878.46;;;9.10;82.18
77881;BME280;67077;50.298;18.996;2023-06-14T02:10:33;97880.95;;;9.12;82.18
77881;BME280;67077;50.298;18.996;2023-06-14T02:13:00;97882.84;;;9.13;82.30
77881;BME280;67077;50.298;18.996;2023-06-14T02:15:27;97880.29;;;9.17;82.45
77881;BME280;67077;50.298;18.996;2023-06-14T02:18:04;97882.80;;;9.24;82.69
77881;BME280;67077;50.298;18.996;2023-06-14T02:20:31;97876.00;;;9.30;82.54
77881;BME280;67077;50.298;18.996;2023-06-14T02:22:58;97875.39;;;9.35;82.55
77881;BME280;67077;50.298;18.996;2023-06-14T02:25:24;97877.06;;;9.41;82.46
77881;BME280;67077;50.298;18.996;2023-06-14T02:27:51;97876.12;;;9.44;82.21
77881;BME280;67077;50.298;18.996;2023-06-14T02:30:18;97874.44;;;9.47;81.93
77881;BME280;67077;50.298;18.996;2023-06-14T02:32:45;97872.51;;;9.53;81.86
77881;BME280;67077;50.298;18.996;2023-06-14T02:35:11;97871.70;;;9.60;81.76
77881;BME280;67077;50.298;18.996;2023-06-14T02:37:38;97871.24;;;9.65;81.71
77881;BME280;67077;50.298;18.996;2023-06-14T02:40:05;97872.75;;;9.67;81.72
77881;BME280;67077;50.298;18.996;2023-06-14T02:42:35;97876.61;;;9.71;82.16
77881;BME280;67077;50.298;18.996;2023-06-14T02:45:01;97872.42;;;9.75;82.32
77881;BME280;67077;50.298;18.996;2023-06-14T02:47:30;97874.84;;;9.80;82.41
77881;BME280;67077;50.298;18.996;2023-06-14T02:49:56;97874.30;;;9.86;82.32
77881;BME280;67077;50.298;18.996;2023-06-14T02:52:23;97874.90;;;9.92;82.20
77881;BME280;67077;50.298;18.996;2023-06-14T02:54:51;97873.35;;;9.95;82.15
77881;BME280;67077;50.298;18.996;2023-06-14T02:57:18;97875.05;;;9.96;82.13
77881;BME280;67077;50.298;18.996;2023-06-14T02:59:45;97874.53;;;9.99;82.09
77881;BME280;67077;50.298;18.996;2023-06-14T03:02:12;97876.91;;;10.06;82.06
77881;BME280;67077;50.298;18.996;2023-06-14T03:04:38;97877.01;;;10.16;81.96
77881;BME280;67077;50.298;18.996;2023-06-14T03:07:06;97874.54;;;10.25;81.66
77881;BME280;67077;50.298;18.996;2023-06-14T03:09:36;97870.98;;;10.29;81.52
77881;BME280;67077;50.298;18.996;2023-06-14T03:12:06;97869.42;;;10.33;81.25
77881;BME280;67077;50.298;18.996;2023-06-14T03:14:36;97873.45;;;10.38;81.09
77881;BME280;67077;50.298;18.996;2023-06-14T03:17:03;97875.30;;;10.45;81.09
77881;BME280;67077;50.298;18.996;2023-06-14T03:19:31;97875.45;;;10.54;80.98
77881;BME280;67077;50.298;18.996;2023-06-14T03:21:58;97877.38;;;10.61;80.89
77881;BME280;67077;50.298;18.996;2023-06-14T03:24:25;97873.27;;;10.67;80.97
77881;BME280;67077;50.298;18.996;2023-06-14T03:26:55;97872.04;;;10.69;81.15
77881;BME280;67077;50.298;18.996;2023-06-14T03:29:23;97874.68;;;10.71;81.31
77881;BME280;67077;50.298;18.996;2023-06-14T03:32:01;97863.52;;;10.73;81.37
77881;BME280;67077;50.298;18.996;2023-06-14T03:34:28;97868.20;;;10.79;81.39
77881;BME280;67077;50.298;18.996;2023-06-14T03:36:55;97871.05;;;10.83;81.49
77881;BME280;67077;50.298;18.996;2023-06-14T03:39:22;97868.92;;;10.88;81.49
77881;BME280;67077;50.298;18.996;2023-06-14T03:41:49;97874.92;;;10.94;81.58
77881;BME280;67077;50.298;18.996;2023-06-14T03:44:17;97873.56;;;11.00;81.73
77881;BME280;67077;50.298;18.996;2023-06-14T03:46:46;97877.40;;;11.07;81.71
77881;BME280;67077;50.298;18.996;2023-06-14T03:49:13;97878.04;;;11.14;81.69
77881;BME280;67077;50.298;18.996;2023-06-14T03:51:39;97874.96;;;11.24;81.50
77881;BME280;67077;50.298;18.996;2023-06-14T03:54:07;97876.85;;;11.31;81.43
77881;BME280;67077;50.298;18.996;2023-06-14T03:56:34;97877.29;;;11.34;81.19
77881;BME280;67077;50.298;18.996;2023-06-14T03:59:01;97878.83;;;11.34;81.22
77881;BME280;67077;50.298;18.996;2023-06-14T04:01:28;97880.58;;;11.33;81.27
77881;BME280;67077;50.298;18.996;2023-06-14T04:03:57;97878.91;;;11.34;81.36
77881;BME280;67077;50.298;18.996;2023-06-14T04:06:24;97878.92;;;11.36;81.41
77881;BME280;67077;50.298;18.996;2023-06-14T04:09:00;97878.01;;;11.36;81.62
77881;BME280;67077;50.298;18.996;2023-06-14T04:11:31;97878.70;;;11.37;81.67
77881;BME280;67077;50.298;18.996;2023-06-14T04:14:01;97878.23;;;11.38;81.70
77881;BME280;67077;50.298;18.996;2023-06-14T04:16:29;97881.97;;;11.38;81.95
77881;BME280;67077;50.298;18.996;2023-06-14T04:18:56;97883.48;;;11.44;81.96
77881;BME280;67077;50.298;18.996;2023-06-14T04:21:24;97883.52;;;11.44;82.12
77881;BME280;67077;50.298;18.996;2023-06-14T04:23:52;97882.80;;;11.46;82.30
77881;BME280;67077;50.298;18.996;2023-06-14T04:26:19;97883.83;;;11.49;82.29
77881;BME280;67077;50.298;18.996;2023-06-14T04:28:47;97884.20;;;11.48;82.52
77881;BME280;67077;50.298;18.996;2023-06-14T04:31:14;97882.41;;;11.53;82.67
77881;BME280;67077;50.298;18.996;2023-06-14T04:33:43;97882.04;;;11.60;82.63
77881;BME280;67077;50.298;18.996;2023-06-14T04:36:10;97882.23;;;11.67;82.55
77881;BME280;67077;50.298;18.996;2023-06-14T04:38:44;97880.27;;;11.73;82.38
77881;BME280;67077;50.298;18.996;2023-06-14T04:41:12;97879.61;;;11.78;82.43
77881;BME280;67077;50.298;18.996;2023-06-14T04:43:39;97873.98;;;11.86;82.12
77881;BME280;67077;50.298;18.996;2023-06-14T04:46:06;97875.54;;;11.92;82.13
77881;BME280;67077;50.298;18.996;2023-06-14T04:48:40;97871.86;;;12.01;82.02
77881;BME280;67077;50.298;18.996;2023-06-14T04:51:09;97872.47;;;12.06;81.82
77881;BME280;67077;50.298;18.996;2023-06-14T04:53:36;97882.41;;;12.03;81.89
77881;BME280;67077;50.298;18.996;2023-06-14T04:56:03;97882.36;;;11.99;81.95
77881;BME280;67077;50.298;18.996;2023-06-14T04:58:30;97879.23;;;11.96;81.94
77881;BME280;67077;50.298;18.996;2023-06-14T05:00:59;97881.86;;;11.95;82.05
77881;BME280;67077;50.298;18.996;2023-06-14T05:03:25;97884.05;;;11.93;82.04
77881;BME280;67077;50.298;18.996;2023-06-14T05:05:53;97887.75;;;11.91;82.11
77881;BME280;67077;50.298;18.996;2023-06-14T05:08:21;97887.35;;;11.90;82.17
77881;BME280;67077;50.298;18.996;2023-06-14T05:10:51;97888.39;;;11.93;82.23
77881;BME280;67077;50.298;18.996;2023-06-14T05:13:18;97887.16;;;11.96;82.21
77881;BME280;67077;50.298;18.996;2023-06-14T05:15:45;97890.48;;;11.98;82.25
77881;BME280;67077;50.298;18.996;2023-06-14T05:18:11;97892.09;;;12.00;82.27
77881;BME280;67077;50.298;18.996;2023-06-14T05:20:39;97891.41;;;12.05;82.25
77881;BME280;67077;50.298;18.996;2023-06-14T05:23:08;97890.27;;;12.11;82.22
77881;BME280;67077;50.298;18.996;2023-06-14T05:25:44;97887.05;;;12.19;82.23
77881;BME280;67077;50.298;18.996;2023-06-14T05:28:11;97894.38;;;12.31;82.01
77881;BME280;67077;50.298;18.996;2023-06-14T05:30:38;97898.12;;;12.42;81.89
77881;BME280;67077;50.298;18.996;2023-06-14T05:33:06;97894.33;;;12.52;81.64
77881;BME280;67077;50.298;18.996;2023-06-14T05:35:33;97897.20;;;12.54;81.49
77881;BME280;67077;50.298;18.996;2023-06-14T05:38:00;97902.62;;;12.64;81.44
77881;BME280;67077;50.298;18.996;2023-06-14T05:40:26;97904.83;;;12.71;81.22
77881;BME280;67077;50.298;18.996;2023-06-14T05:42:53;97910.29;;;12.74;80.98
77881;BME280;67077;50.298;18.996;2023-06-14T05:45:20;97908.73;;;12.77;80.89
77881;BME280;67077;50.298;18.996;2023-06-14T05:47:47;97910.34;;;12.82;80.77
77881;BME280;67077;50.298;18.996;2023-06-14T05:50:13;97911.13;;;12.86;80.63
77881;BME280;67077;50.298;18.996;2023-06-14T05:52:40;97910.52;;;12.90;80.50
77881;BME280;67077;50.298;18.996;2023-06-14T05:55:07;97919.34;;;12.91;80.21
77881;BME280;67077;50.298;18.996;2023-06-14T05:57:34;97916.30;;;12.89;80.24
77881;BME280;67077;50.298;18.996;2023-06-14T06:00:02;97916.80;;;12.87;80.16
77881;BME280;67077;50.298;18.996;2023-06-14T06:02:37;97919.46;;;12.82;80.12
77881;BME280;67077;50.298;18.996;2023-06-14T06:05:04;97918.11;;;12.77;80.12
77881;BME280;67077;50.298;18.996;2023-06-14T06:07:32;97919.40;;;12.70;80.21
77881;BME280;67077;50.298;18.996;2023-06-14T06:09:59;97914.64;;;12.68;80.39
77881;BME280;67077;50.298;18.996;2023-06-14T06:12:26;97915.45;;;12.71;80.45
77881;BME280;67077;50.298;18.996;2023-06-14T06:14:52;97918.81;;;12.77;80.35
77881;BME280;67077;50.298;18.996;2023-06-14T06:17:19;97917.09;;;12.80;80.34
77881;BME280;67077;50.298;18.996;2023-06-14T06:19:46;97915.46;;;12.80;80.28
77881;BME280;67077;50.298;18.996;2023-06-14T06:22:12;97919.91;;;12.83;80.16
77881;BME280;67077;50.298;18.996;2023-06-14T06:24:39;97921.54;;;12.83;80.29
77881;BME280;67077;50.298;18.996;2023-06-14T06:27:06;97924.77;;;12.82;80.31
77881;BME280;67077;50.298;18.996;2023-06-14T06:29:35;97924.30;;;12.80;80.23
77881;BME280;67077;50.298;18.996;2023-06-14T06:32:02;97926.52;;;12.80;80.32
77881;BME280;67077;50.298;18.996;2023-06-14T06:34:29;97928.55;;;12.81;80.32
77881;BME280;67077;50.298;18.996;2023-06-14T06:36:55;97933.56;;;12.82;80.40
77881;BME280;67077;50.298;18.996;2023-06-14T06:39:22;97936.61;;;12.80;80.48
77881;BME280;67077;50.298;18.996;2023-06-14T06:41:49;97935.60;;;12.81;80.54
77881;BME280;67077;50.298;18.996;2023-06-14T06:44:15;97935.08;;;12.82;80.44
77881;BME280;67077;50.298;18.996;2023-06-14T06:46:43;97935.02;;;12.84;80.49
77881;BME280;67077;50.298;18.996;2023-06-14T06:49:10;97938.83;;;12.89;80.42
77881;BME280;67077;50.298;18.996;2023-06-14T06:51:42;97937.33;;;12.98;80.33
77881;BME280;67077;50.298;18.996;2023-06-14T06:54:10;97939.39;;;13.04;80.19
77881;BME280;67077;50.298;18.996;2023-06-14T06:56:37;97940.61;;;13.05;80.10
77881;BME280;67077;50.298;18.996;2023-06-14T06:59:04;97940.08;;;13.09;79.96
77881;BME280;67077;50.298;18.996;2023-06-14T07:01:31;97943.34;;;13.14;79.73
77881;BME280;67077;50.298;18.996;2023-06-14T07:04:00;97945.58;;;13.21;79.28
77881;BME280;67077;50.298;18.996;2023-06-14T07:06:27;97947.38;;;13.24;78.99
77881;BME280;67077;50.298;18.996;2023-06-14T07:08:54;97946.74;;;13.22;78.65
77881;BME280;67077;50.298;18.996;2023-06-14T07:11:21;97950.76;;;13.22;78.51
77881;BME280;67077;50.298;18.996;2023-06-14T07:13:48;97947.48;;;13.27;78.34
77881;BME280;67077;50.298;18.996;2023-06-14T07:16:16;97951.42;;;13.28;78.34
77881;BME280;67077;50.298;18.996;2023-06-14T07:18:47;97952.64;;;13.30;78.47
77881;BME280;67077;50.298;18.996;2023-06-14T07:21:15;97956.24;;;13.31;78.46
77881;BME280;67077;50.298;18.996;2023-06-14T07:23:42;97959.73;;;13.34;78.60
77881;BME280;67077;50.298;18.996;2023-06-14T07:26:10;97960.79;;;13.40;78.61
77881;BME280;67077;50.298;18.996;2023-06-14T07:28:37;97959.48;;;13.46;78.44
77881;BME280;67077;50.298;18.996;2023-06-14T07:31:05;97964.14;;;13.52;78.41
77881;BME280;67077;50.298;18.996;2023-06-14T07:33:40;97964.76;;;13.56;78.34
77881;BME280;67077;50.298;18.996;2023-06-14T07:36:07;97963.80;;;13.60;78.28
77881;BME280;67077;50.298;18.996;2023-06-14T07:38:35;97967.19;;;13.63;78.24
77881;BME280;67077;50.298;18.996;2023-06-14T07:41:03;97972.48;;;13.64;77.88
77881;BME280;67077;50.298;18.996;2023-06-14T07:43:30;97970.70;;;13.60;77.80
77881;BME280;67077;50.298;18.996;2023-06-14T07:45:57;97975.77;;;13.53;77.64
77881;BME280;67077;50.298;18.996;2023-06-14T07:48:24;97977.20;;;13.46;77.60
77881;BME280;67077;50.298;18.996;2023-06-14T07:50:51;97982.00;;;13.42;77.60
77881;BME280;67077;50.298;18.996;2023-06-14T07:53:18;97983.55;;;13.43;77.65
77881;BME280;67077;50.298;18.996;2023-06-14T07:55:46;97983.86;;;13.43;77.61
77881;BME280;67077;50.298;18.996;2023-06-14T07:58:14;97984.94;;;13.42;77.54
77881;BME280;67077;50.298;18.996;2023-06-14T08:00:42;97989.23;;;13.40;77.62
77881;BME280;67077;50.298;18.996;2023-06-14T08:03:09;97987.52;;;13.38;77.64
77881;BME280;67077;50.298;18.996;2023-06-14T08:05:36;97990.77;;;13.40;77.69
77881;BME280;67077;50.298;18.996;2023-06-14T08:08:03;97991.98;;;13.38;77.73
77881;BME280;67077;50.298;18.996;2023-06-14T08:10:30;97991.84;;;13.34;77.71
77881;BME280;67077;50.298;18.996;2023-06-14T08:12:57;97987.77;;;13.27;77.84
77881;BME280;67077;50.298;18.996;2023-06-14T08:15:23;97989.29;;;13.24;77.91
77881;BME280;67077;50.298;18.996;2023-06-14T08:17:51;97982.80;;;13.26;77.91
77881;BME280;67077;50.298;18.996;2023-06-14T08:20:18;97984.91;;;13.26;77.90
77881;BME280;67077;50.298;18.996;2023-06-14T08:22:45;97982.23;;;13.24;77.96
77881;BME280;67077;50.298;18.996;2023-06-14T08:25:13;97983.44;;;13.25;77.96
77881;BME280;67077;50.298;18.996;2023-06-14T08:27:39;97983.14;;;13.27;78.05
77881;BME280;67077;50.298;18.996;2023-06-14T08:30:07;97981.08;;;13.32;78.09
77881;BME280;67077;50.298;18.996;2023-06-14T08:32:34;97980.80;;;13.38;78.05
77881;BME280;67077;50.298;18.996;2023-06-14T08:35:01;97983.66;;;13.40;78.04
77881;BME280;67077;50.298;18.996;2023-06-14T08:37:29;97983.17;;;13.43;78.05
77881;BME280;67077;50.298;18.996;2023-06-14T08:40:00;97982.52;;;13.48;78.26
77881;BME280;67077;50.298;18.996;2023-06-14T08:42:31;97986.88;;;13.51;78.28
77881;BME280;67077;50.298;18.996;2023-06-14T08:45:02;97989.25;;;13.50;78.53
77881;BME280;67077;50.298;18.996;2023-06-14T08:47:40;97991.70;;;13.46;78.78
77881;BME280;67077;50.298;18.996;2023-06-14T08:50:08;97992.55;;;13.39;79.10
77881;BME280;67077;50.298;18.996;2023-06-14T08:52:38;97995.94;;;13.33;79.72
77881;BME280;67077;50.298;18.996;2023-06-14T08:55:12;98000.75;;;13.25;80.51
77881;BME280;67077;50.298;18.996;2023-06-14T08:58:09;98004.35;;;13.14;81.12
77881;BME280;67077;50.298;18.996;2023-06-14T09:00:46;98003.26;;;13.04;81.38
77881;BME280;67077;50.298;18.996;2023-06-14T09:12:00;98018.27;;;12.99;82.57
77881;BME280;67077;50.298;18.996;2023-06-14T09:15:20;98018.56;;;13.02;82.89
77881;BME280;67077;50.298;18.996;2023-06-14T09:24:01;98018.43;;;13.36;83.12
77881;BME280;67077;50.298;18.996;2023-06-14T09:27:15;98017.56;;;13.46;82.78
77881;BME280;67077;50.298;18.996;2023-06-14T09:32:50;98018.30;;;13.58;82.37
77881;BME280;67077;50.298;18.996;2023-06-14T09:35:40;98018.77;;;13.60;82.18
77881;BME280;67077;50.298;18.996;2023-06-14T09:38:24;98015.80;;;13.58;82.53
77881;BME280;67077;50.298;18.996;2023-06-14T09:41:08;98018.80;;;13.59;82.37
77881;BME280;67077;50.298;18.996;2023-06-14T09:46:23;98015.99;;;13.57;82.03
77881;BME280;67077;50.298;18.996;2023-06-14T09:48:55;98018.25;;;13.53;81.84
77881;BME280;67077;50.298;18.996;2023-06-14T09:51:23;98018.12;;;13.49;82.00
77881;BME280;67077;50.298;18.996;2023-06-14T09:53:53;98019.55;;;13.46;82.08
77881;BME280;67077;50.298;18.996;2023-06-14T09:56:28;98020.05;;;13.46;82.01
77881;BME280;67077;50.298;18.996;2023-06-14T10:01:45;98022.36;;;13.57;81.94
77881;BME280;67077;50.298;18.996;2023-06-14T10:04:33;98024.17;;;13.68;81.83
77881;BME280;67077;50.298;18.996;2023-06-14T10:07:01;98023.19;;;13.79;81.96
77881;BME280;67077;50.298;18.996;2023-06-14T10:09:30;98026.72;;;13.88;81.71
77881;BME280;67077;50.298;18.996;2023-06-14T10:11:59;98026.56;;;13.93;81.55
77881;BME280;67077;50.298;18.996;2023-06-14T10:14:27;98028.24;;;13.99;81.52
77881;BME280;67077;50.298;18.996;2023-06-14T10:17:10;98027.44;;;14.05;81.12
77881;BME280;67077;50.298;18.996;2023-06-14T10:19:51;98026.28;;;14.12;80.74
77881;BME280;67077;50.298;18.996;2023-06-14T10:25:31;98025.70;;;14.17;80.28
77881;BME280;67077;50.298;18.996;2023-06-14T10:28:03;98023.06;;;14.18;79.94
77881;BME280;67077;50.298;18.996;2023-06-14T10:31:10;98020.25;;;14.27;79.96
77881;BME280;67077;50.298;18.996;2023-06-14T10:33:56;98021.61;;;14.40;79.60
77881;BME280;67077;50.298;18.996;2023-06-14T10:36:25;98022.60;;;14.54;79.27
77881;BME280;67077;50.298;18.996;2023-06-14T10:39:18;98018.45;;;14.69;79.10
77881;BME280;67077;50.298;18.996;2023-06-14T10:41:56;98019.55;;;14.83;78.69
77881;BME280;67077;50.298;18.996;2023-06-14T10:46:54;98015.91;;;15.00;78.09
77881;BME280;67077;50.298;18.996;2023-06-14T10:49:42;98014.74;;;15.03;77.54
77881;BME280;67077;50.298;18.996;2023-06-14T10:52:14;98015.20;;;15.09;77.13
77881;BME280;67077;50.298;18.996;2023-06-14T10:55:14;98009.69;;;15.23;76.75
77881;BME280;67077;50.298;18.996;2023-06-14T11:00:13;98005.23;;;15.52;75.72
77881;BME280;67077;50.298;18.996;2023-06-14T11:05:51;98006.73;;;15.87;74.61
77881;BME280;67077;50.298;18.996;2023-06-14T11:10:53;98001.38;;;16.22;74.72
77881;BME280;67077;50.298;18.996;2023-06-14T11:13:25;98000.67;;;16.44;74.22
77881;BME280;67077;50.298;18.996;2023-06-14T11:15:53;97998.63;;;16.49;72.33
77881;BME280;67077;50.298;18.996;2023-06-14T11:18:22;97999.19;;;16.43;72.31
77881;BME280;67077;50.298;18.996;2023-06-14T11:20:53;97997.08;;;16.34;72.58
77881;BME280;67077;50.298;18.996;2023-06-14T11:23:21;97995.52;;;16.19;72.63
77881;BME280;67077;50.298;18.996;2023-06-14T11:25:50;97994.42;;;16.12;72.76
77881;BME280;67077;50.298;18.996;2023-06-14T11:28:18;97989.73;;;16.13;71.79
77881;BME280;67077;50.298;18.996;2023-06-14T11:30:47;97986.82;;;16.17;71.86
77881;BME280;67077;50.298;18.996;2023-06-14T11:33:17;97987.45;;;16.25;72.06
77881;BME280;67077;50.298;18.996;2023-06-14T11:35:47;97990.14;;;16.33;71.88
77881;BME280;67077;50.298;18.996;2023-06-14T11:38:14;97994.38;;;16.31;71.10
77881;BME280;67077;50.298;18.996;2023-06-14T11:40:41;97997.02;;;16.22;70.66
77881;BME280;67077;50.298;18.996;2023-06-14T11:43:13;97999.65;;;16.03;70.47
77881;BME280;67077;50.298;18.996;2023-06-14T11:45:40;97998.86;;;15.85;71.36
77881;BME280;67077;50.298;18.996;2023-06-14T11:48:07;98002.36;;;15.73;72.12
77881;BME280;67077;50.298;18.996;2023-06-14T11:50:38;98006.39;;;15.61;72.37
77881;BME280;67077;50.298;18.996;2023-06-14T11:53:06;98004.75;;;15.51;72.61
77881;BME280;67077;50.298;18.996;2023-06-14T11:55:40;98000.77;;;15.46;72.54
77881;BME280;67077;50.298;18.996;2023-06-14T11:58:07;97995.42;;;15.47;72.54
77881;BME280;67077;50.298;18.996;2023-06-14T12:00:35;98000.57;;;15.54;72.66
77881;BME280;67077;50.298;18.996;2023-06-14T12:03:02;97997.20;;;15.65;72.25
77881;BME280;67077;50.298;18.996;2023-06-14T12:05:30;97998.17;;;15.74;71.63
77881;BME280;67077;50.298;18.996;2023-06-14T12:08:01;97995.02;;;15.78;71.12
77881;BME280;67077;50.298;18.996;2023-06-14T12:10:39;97989.99;;;15.87;70.94
77881;BME280;67077;50.298;18.996;2023-06-14T12:13:07;97980.28;;;16.02;70.62
77881;BME280;67077;50.298;18.996;2023-06-14T12:15:34;97982.45;;;16.16;70.28
77881;BME280;67077;50.298;18.996;2023-06-14T12:18:05;97980.32;;;16.26;69.37
77881;BME280;67077;50.298;18.996;2023-06-14T12:20:33;97976.50;;;16.33;68.12
77881;BME280;67077;50.298;18.996;2023-06-14T12:23:03;97972.61;;;16.37;67.68
77881;BME280;67077;50.298;18.996;2023-06-14T12:27:59;97973.64;;;16.47;67.77
77881;BME280;67077;50.298;18.996;2023-06-14T12:30:26;97973.48;;;16.51;67.70
77881;BME280;67077;50.298;18.996;2023-06-14T12:32:52;97964.30;;;16.59;67.37
77881;BME280;67077;50.298;18.996;2023-06-14T12:35:19;97966.80;;;16.75;67.61
77881;BME280;67077;50.298;18.996;2023-06-14T12:37:46;97967.35;;;16.94;66.90
77881;BME280;67077;50.298;18.996;2023-06-14T12:40:13;97962.95;;;17.03;64.78
77881;BME280;67077;50.298;18.996;2023-06-14T12:42:41;97961.84;;;17.10;64.41
77881;BME280;67077;50.298;18.996;2023-06-14T12:45:08;97953.42;;;17.19;63.96
77881;BME280;67077;50.298;18.996;2023-06-14T12:47:36;97953.55;;;17.31;63.41
77881;BME280;67077;50.298;18.996;2023-06-14T12:50:02;97949.39;;;17.45;62.96
77881;BME280;67077;50.298;18.996;2023-06-14T12:52:29;97953.12;;;17.60;61.94
77881;BME280;67077;50.298;18.996;2023-06-14T12:55:15;97945.92;;;17.73;61.66
77881;BME280;67077;50.298;18.996;2023-06-14T12:57:42;97940.98;;;17.85;61.36
77881;BME280;67077;50.298;18.996;2023-06-14T13:00:09;97943.27;;;17.97;61.00
77881;BME280;67077;50.298;18.996;2023-06-14T13:02:36;97940.27;;;18.04;60.13
77881;BME280;67077;50.298;18.996;2023-06-14T13:05:02;97938.42;;;18.09;59.56
77881;BME280;67077;50.298;18.996;2023-06-14T13:07:30;97938.74;;;18.17;59.59
77881;BME280;67077;50.298;18.996;2023-06-14T13:09:57;97933.58;;;18.34;59.23
77881;BME280;67077;50.298;18.996;2023-06-14T13:12:23;97933.74;;;18.50;58.62
77881;BME280;67077;50.298;18.996;2023-06-14T13:14:50;97931.71;;;18.60;57.84
77881;BME280;67077;50.298;18.996;2023-06-14T13:17:16;97932.98;;;18.58;57.86
77881;BME280;67077;50.298;18.996;2023-06-14T13:19:43;97931.29;;;18.65;58.34
77881;BME280;67077;50.298;18.996;2023-06-14T13:22:10;97934.04;;;18.72;58.03
77881;BME280;67077;50.298;18.996;2023-06-14T13:24:36;97932.73;;;18.68;58.32
77881;BME280;67077;50.298;18.996;2023-06-14T13:27:03;97934.97;;;18.73;58.67
77881;BME280;67077;50.298;18.996;2023-06-14T13:29:30;97936.61;;;18.71;58.33
77881;BME280;67077;50.298;18.996;2023-06-14T13:31:57;97938.06;;;18.56;58.35
77881;BME280;67077;50.298;18.996;2023-06-14T13:34:24;97940.09;;;18.38;58.21
77881;BME280;67077;50.298;18.996;2023-06-14T13:36:50;97938.83;;;18.34;58.95
77881;BME280;67077;50.298;18.996;2023-06-14T13:39:17;97939.70;;;18.41;58.88
77881;BME280;67077;50.298;18.996;2023-06-14T13:41:43;97937.90;;;18.54;58.63
77881;BME280;67077;50.298;18.996;2023-06-14T13:44:10;97934.79;;;18.62;57.23
77881;BME280;67077;50.298;18.996;2023-06-14T13:46:40;97933.98;;;18.69;57.14
77881;BME280;67077;50.298;18.996;2023-06-14T13:49:08;97931.24;;;18.72;56.38